sensor_id;sensor_type;location;lat;lon;timestamp;pressure;altitude;pressure_sealevel;temperature;humidity
25944;BME280;13742;49.306;8.636;2022-11-10T00:00:34;100892.72;;;11.67;100.00
25944;BME280;13742;49.306;8.636;2022-11-10T00:01:33;100891.86;;;11.68;100.00
25944;BME280;13742;49.306;8.636;2022-11-10T00:02:33;100891.31;;;11.67;100.00
25944;BME280;13742;49.306;8.636;2022-11-10T00:03:34;100893.55;;;11.67;100.00
25944;BME280;13742;49.306;8.636;2022-11-10T00:04:33;100893.80;;;11.66;100.00
25944;BME280;13742;49.306;8.636;2022-11-10T00:05:34;100895.70;;;11.66;100.00
25944;BME280;13742;49.306;8.636;2022-11-10T00:06:33;100894.70;;;11.67;100.00
25944;BME280;13742;49.306;8.636;2022-11-10T00:07:33;100898.02;;;11.67;100.00
25944;BME280;13742;49.306;8.636;2022-11-10T00:08:33;100900.47;;;11.68;100.00
25944;BME280;13742;49.306;8.636;2022-11-10T00:09:33;100900.83;;;11.69;100.00
25944;BME280;13742;49.306;8.636;2022-11-10T00:10:48;100904.05;;;11.69;100.00
25944;BME280;13742;49.306;8.636;2022-11-10T00:11:33;100907.19;;;11.69;100.00
25944;BME280;13742;49.306;8.636;2022-11-10T00:12:33;100905.13;;;11.67;100.00
25944;BME280;13742;49.306;8.636;2022-11-10T00:13:35;100905.79;;;11.65;100.00
25944;BME280;13742;49.306;8.636;2022-11-10T00:14:38;100906.39;;;11.65;100.00
25944;BME280;13742;49.306;8.636;2022-11-10T00:15:38;100909.59;;;11.66;100.00
25944;BME280;13742;49.306;8.636;2022-11-10T00:16:38;100907.47;;;11.66;100.00
25944;BME280;13742;49.306;8.636;2022-11-10T00:17:36;100907.61;;;11.67;100.00
25944;BME280;13742;49.306;8.636;2022-11-10T00:18:33;100909.75;;;11.68;100.00
25944;BME280;13742;49.306;8.636;2022-11-10T00:19:33;100909.06;;;11.68;100.00
25944;BME280;13742;49.306;8.636;2022-11-10T00:20:33;100912.05;;;11.68;100.00
25944;BME280;13742;49.306;8.636;2022-11-10T00:21:33;100915.22;;;11.68;100.00
25944;BME280;13742;49.306;8.636;2022-11-10T00:22:33;100912.13;;;11.67;100.00
25944;BME280;13742;49.306;8.636;2022-11-10T00:23:33;100919.69;;;11.67;100.00
25944;BME280;13742;49.306;8.636;2022-11-10T00:24:33;100916.04;;;11.66;100.00
25944;BME280;13742;49.306;8.636;2022-11-10T00:25:33;100916.13;;;11.66;100.00
25944;BME280;13742;49.306;8.636;2022-11-10T00:26:33;100917.72;;;11.66;100.00
25944;BME280;13742;49.306;8.636;2022-11-10T00:27:33;100917.28;;;11.65;100.00
25944;BME280;13742;49.306;8.636;2022-11-10T00:28:33;100917.53;;;11.64;100.00
25944;BME280;13742;49.306;8.636;2022-11-10T00:29:33;100914.41;;;11.64;100.00
25944;BME280;13742;49.306;8.636;2022-11-10T00:30:33;100918.02;;;11.64;100.00
25944;BME280;13742;49.306;8.636;2022-11-10T00:31:33;100918.30;;;11.65;100.00
25944;BME280;13742;49.306;8.636;2022-11-10T00:32:33;100916.78;;;11.63;100.00
25944;BME280;13742;49.306;8.636;2022-11-10T00:33:34;100917.69;;;11.64;100.00
25944;BME280;13742;49.306;8.636;2022-11-10T00:34:33;100918.19;;;11.64;100.00
25944;BME280;13742;49.306;8.636;2022-11-10T00:35:33;100919.32;;;11.64;100.00
25944;BME280;13742;49.306;8.636;2022-11-10T00:36:33;100918.38;;;11.64;100.00
25944;BME280;13742;49.306;8.636;2022-11-10T00:37:33;100922.22;;;11.65;100.00
25944;BME280;13742;49.306;8.636;2022-11-10T00:38:33;100919.95;;;11.65;100.00
25944;BME280;13742;49.306;8.636;2022-11-10T00:39:33;100920.92;;;11.64;100.00
25944;BME280;13742;49.306;8.636;2022-11-10T00:40:33;100924.80;;;11.64;100.00
25944;BME280;13742;49.306;8.636;2022-11-10T00:41:33;100929.83;;;11.65;100.00
25944;BME280;13742;49.306;8.636;2022-11-10T00:42:33;100929.02;;;11.65;100.00
25944;BME280;13742;49.306;8.636;2022-11-10T00:43:33;100931.37;;;11.65;100.00
25944;BME280;13742;49.306;8.636;2022-11-10T00:44:33;100932.00;;;11.63;100.00
25944;BME280;13742;49.306;8.636;2022-11-10T00:45:33;100933.98;;;11.63;100.00
25944;BME280;13742;49.306;8.636;2022-11-10T00:46:33;100932.75;;;11.63;100.00
25944;BME280;13742;49.306;8.636;2022-11-10T00:47:33;100937.19;;;11.62;100.00
25944;BME280;13742;49.306;8.636;2022-11-10T00:48:33;100935.17;;;11.61;100.00
25944;BME280;13742;49.306;8.636;2022-11-10T00:49:33;100937.63;;;11.60;100.00
25944;BME280;13742;49.306;8.636;2022-11-10T00:50:33;100936.61;;;11.59;100.00
25944;BME280;13742;49.306;8.636;2022-11-10T00:51:33;100935.59;;;11.58;100.00
25944;BME280;13742;49.306;8.636;2022-11-10T00:52:33;100943.03;;;11.58;100.00
25944;BME280;13742;49.306;8.636;2022-11-10T00:53:33;100940.24;;;11.57;100.00
25944;BME280;13742;49.306;8.636;2022-11-10T00:54:33;100942.28;;;11.55;100.00
25944;BME280;13742;49.306;8.636;2022-11-10T00:55:35;100944.93;;;11.55;100.00
25944;BME280;13742;49.306;8.636;2022-11-10T00:56:33;100945.12;;;11.54;100.00
25944;BME280;13742;49.306;8.636;2022-11-10T00:57:33;100945.53;;;11.52;100.00
25944;BME280;13742;49.306;8.636;2022-11-10T00:58:33;100951.59;;;11.52;100.00
25944;BME280;13742;49.306;8.636;2022-11-10T00:59:33;100950.38;;;11.52;100.00
25944;BME280;13742;49.306;8.636;2022-11-10T01:00:33;100952.58;;;11.50;100.00
25944;BME280;13742;49.306;8.636;2022-11-10T01:01:33;100953.30;;;11.50;100.00
25944;BME280;13742;49.306;8.636;2022-11-10T01:02:33;100952.69;;;11.49;100.00
25944;BME280;13742;49.306;8.636;2022-11-10T01:03:33;100954.34;;;11.49;100.00
25944;BME280;13742;49.306;8.636;2022-11-10T01:04:33;100959.08;;;11.47;100.00
25944;BME280;13742;49.306;8.636;2022-11-10T01:05:36;100957.53;;;11.46;100.00
25944;BME280;13742;49.306;8.636;2022-11-10T01:06:33;100960.34;;;11.46;100.00
25944;BME280;13742;49.306;8.636;2022-11-10T01:07:33;100959.77;;;11.45;100.00
25944;BME280;13742;49.306;8.636;2022-11-10T01:08:33;100957.51;;;11.44;100.00
25944;BME280;13742;49.306;8.636;2022-11-10T01:09:33;100958.49;;;11.43;100.00
25944;BME280;13742;49.306;8.636;2022-11-10T01:10:33;100964.78;;;11.43;100.00
25944;BME280;13742;49.306;8.636;2022-11-10T01:11:33;100968.97;;;11.42;100.00
25944;BME280;13742;49.306;8.636;2022-11-10T01:12:33;100975.22;;;11.40;100.00
25944;BME280;13742;49.306;8.636;2022-11-10T01:13:33;100975.19;;;11.38;100.00
25944;BME280;13742;49.306;8.636;2022-11-10T01:14:33;100977.99;;;11.36;100.00
25944;BME280;13742;49.306;8.636;2022-11-10T01:15:33;100981.91;;;11.34;100.00
25944;BME280;13742;49.306;8.636;2022-11-10T01:16:33;100979.50;;;11.31;100.00
25944;BME280;13742;49.306;8.636;2022-11-10T01:17:33;100981.13;;;11.30;100.00
25944;BME280;13742;49.306;8.636;2022-11-10T01:18:33;100980.50;;;11.28;100.00
25944;BME280;13742;49.306;8.636;2022-11-10T01:19:33;100975.05;;;11.26;100.00
25944;BME280;13742;49.306;8.636;2022-11-10T01:20:33;100978.58;;;11.26;100.00
25944;BME280;13742;49.306;8.636;2022-11-10T01:21:33;100980.14;;;11.25;100.00
25944;BME280;13742;49.306;8.636;2022-11-10T01:22:33;100988.05;;;11.24;100.00
25944;BME280;13742;49.306;8.636;2022-11-10T01:23:33;100985.46;;;11.24;100.00
25944;BME280;13742;49.306;8.636;2022-11-10T01:24:33;100989.09;;;11.24;100.00
25944;BME280;13742;49.306;8.636;2022-11-10T01:25:33;100988.38;;;11.24;100.00
25944;BME280;13742;49.306;8.636;2022-11-10T01:26:33;100991.95;;;11.22;100.00
25944;BME280;13742;49.306;8.636;2022-11-10T01:27:33;100993.83;;;11.21;100.00
25944;BME280;13742;49.306;8.636;2022-11-10T01:28:34;100991.41;;;11.16;100.00
25944;BME280;13742;49.306;8.636;2022-11-10T01:29:33;100995.29;;;11.15;100.00
25944;BME280;13742;49.306;8.636;2022-11-10T01:30:33;100997.79;;;11.13;100.00
25944;BME280;13742;49.306;8.636;2022-11-10T01:31:33;100998.44;;;11.10;100.00
25944;BME280;13742;49.306;8.636;2022-11-10T01:32:33;101000.02;;;11.09;100.00
25944;BME280;13742;49.306;8.636;2022-11-10T01:33:33;101000.47;;;11.08;100.00
25944;BME280;13742;49.306;8.636;2022-11-10T01:34:33;101002.34;;;11.08;100.00
25944;BME280;13742;49.306;8.636;2022-11-10T01:35:33;101007.80;;;11.06;100.00
25944;BME280;13742;49.306;8.636;2022-11-10T01:36:33;101010.67;;;11.05;100.00
25944;BME280;13742;49.306;8.636;2022-11-10T01:37:33;101013.46;;;11.04;100.00
25944;BME280;13742;49.306;8.636;2022-11-10T01:38:34;101013.89;;;11.04;100.00
25944;BME280;13742;49.306;8.636;2022-11-10T01:39:33;101017.59;;;11.04;100.00
25944;BME280;13742;49.306;8.636;2022-11-10T01:40:33;101018.58;;;11.04;100.00
25944;BME280;13742;49.306;8.636;2022-11-10T01:41:33;101016.84;;;11.03;100.00
25944;BME280;13742;49.306;8.636;2022-11-10T01:43:33;101022.32;;;11.04;100.00
25944;BME280;13742;49.306;8.636;2022-11-10T01:44:33;101019.52;;;11.04;100.00
25944;BME280;13742;49.306;8.636;2022-11-10T01:46:33;101021.49;;;11.04;100.00
25944;BME280;13742;49.306;8.636;2022-11-10T01:47:33;101022.16;;;11.04;100.00
25944;BME280;13742;49.306;8.636;2022-11-10T01:49:34;101018.91;;;11.02;100.00
25944;BME280;13742;49.306;8.636;2022-11-10T01:50:34;101020.89;;;11.02;100.00
25944;BME280;13742;49.306;8.636;2022-11-10T01:52:33;101023.06;;;11.01;100.00
25944;BME280;13742;49.306;8.636;2022-11-10T01:53:33;101022.89;;;11.01;100.00
25944;BME280;13742;49.306;8.636;2022-11-10T01:54:37;101023.55;;;10.99;100.00
25944;BME280;13742;49.306;8.636;2022-11-10T01:55:33;101022.94;;;10.99;100.00
25944;BME280;13742;49.306;8.636;2022-11-10T01:56:34;101021.64;;;10.98;100.00
25944;BME280;13742;49.306;8.636;2022-11-10T01:57:33;101021.06;;;10.97;100.00
25944;BME280;13742;49.306;8.636;2022-11-10T01:58:33;101021.47;;;10.96;100.00
25944;BME280;13742;49.306;8.636;2022-11-10T01:59:34;101023.34;;;10.96;100.00
25944;BME280;13742;49.306;8.636;2022-11-10T02:00:33;101027.52;;;10.96;100.00
25944;BME280;13742;49.306;8.636;2022-11-10T02:01:33;101028.70;;;10.95;100.00
25944;BME280;13742;49.306;8.636;2022-11-10T02:04:33;101030.73;;;10.94;100.00
25944;BME280;13742;49.306;8.636;2022-11-10T02:05:33;101032.58;;;10.94;100.00
25944;BME280;13742;49.306;8.636;2022-11-10T02:06:38;101033.10;;;10.93;100.00
25944;BME280;13742;49.306;8.636;2022-11-10T02:07:33;101035.07;;;10.91;100.00
25944;BME280;13742;49.306;8.636;2022-11-10T02:08:33;101036.05;;;10.89;100.00
25944;BME280;13742;49.306;8.636;2022-11-10T02:09:33;101035.30;;;10.88;100.00
25944;BME280;13742;49.306;8.636;2022-11-10T02:10:33;101036.52;;;10.87;100.00
25944;BME280;13742;49.306;8.636;2022-11-10T02:11:33;101037.44;;;10.86;100.00
25944;BME280;13742;49.306;8.636;2022-11-10T02:12:36;101039.40;;;10.86;100.00
25944;BME280;13742;49.306;8.636;2022-11-10T02:13:33;101039.28;;;10.86;100.00
25944;BME280;13742;49.306;8.636;2022-11-10T02:14:33;101039.03;;;10.85;100.00
25944;BME280;13742;49.306;8.636;2022-11-10T02:15:33;101040.16;;;10.85;100.00
25944;BME280;13742;49.306;8.636;2022-11-10T02:16:33;101041.05;;;10.85;100.00
25944;BME280;13742;49.306;8.636;2022-11-10T02:17:33;101048.23;;;10.85;100.00
25944;BME280;13742;49.306;8.636;2022-11-10T02:18:33;101046.98;;;10.84;100.00
25944;BME280;13742;49.306;8.636;2022-11-10T02:19:38;101049.67;;;10.82;100.00
25944;BME280;13742;49.306;8.636;2022-11-10T02:20:33;101053.25;;;10.82;100.00
25944;BME280;13742;49.306;8.636;2022-11-10T02:21:33;101054.44;;;10.81;100.00
25944;BME280;13742;49.306;8.636;2022-11-10T02:22:33;101054.97;;;10.79;100.00
25944;BME280;13742;49.306;8.636;2022-11-10T02:23:51;101061.60;;;10.78;100.00
25944;BME280;13742;49.306;8.636;2022-11-10T02:24:34;101057.89;;;10.76;100.00
25944;BME280;13742;49.306;8.636;2022-11-10T02:25:33;101062.91;;;10.75;100.00
25944;BME280;13742;49.306;8.636;2022-11-10T02:26:33;101065.09;;;10.74;100.00
25944;BME280;13742;49.306;8.636;2022-11-10T02:27:33;101066.88;;;10.73;100.00
25944;BME280;13742;49.306;8.636;2022-11-10T02:28:36;101067.46;;;10.72;100.00
25944;BME280;13742;49.306;8.636;2022-11-10T02:29:33;101065.83;;;10.71;100.00
25944;BME280;13742;49.306;8.636;2022-11-10T02:30:33;101065.83;;;10.71;100.00
25944;BME280;13742;49.306;8.636;2022-11-10T02:31:33;101063.05;;;10.69;100.00
25944;BME280;13742;49.306;8.636;2022-11-10T02:32:33;101063.23;;;10.67;100.00
25944;BME280;13742;49.306;8.636;2022-11-10T02:33:33;101065.05;;;10.66;100.00
25944;BME280;13742;49.306;8.636;2022-11-10T02:34:33;101062.95;;;10.64;100.00
25944;BME280;13742;49.306;8.636;2022-11-10T02:35:33;101065.28;;;10.64;100.00
25944;BME280;13742;49.306;8.636;2022-11-10T02:36:33;101065.44;;;10.63;100.00
25944;BME280;13742;49.306;8.636;2022-11-10T02:37:33;101063.53;;;10.62;100.00
25944;BME280;13742;49.306;8.636;2022-11-10T02:38:33;101064.88;;;10.61;100.00
25944;BME280;13742;49.306;8.636;2022-11-10T02:39:33;101063.74;;;10.60;100.00
25944;BME280;13742;49.306;8.636;2022-11-10T02:40:33;101063.80;;;10.60;100.00
25944;BME280;13742;49.306;8.636;2022-11-10T02:41:33;101064.64;;;10.59;100.00
25944;BME280;13742;49.306;8.636;2022-11-10T02:42:33;101067.67;;;10.59;100.00
25944;BME280;13742;49.306;8.636;2022-11-10T02:43:33;101070.45;;;10.59;100.00
25944;BME280;13742;49.306;8.636;2022-11-10T02:44:33;101070.40;;;10.59;100.00
25944;BME280;13742;49.306;8.636;2022-11-10T02:45:33;101072.38;;;10.58;100.00
25944;BME280;13742;49.306;8.636;2022-11-10T02:46:36;101069.72;;;10.57;100.00
25944;BME280;13742;49.306;8.636;2022-11-10T02:47:33;101072.90;;;10.55;100.00
25944;BME280;13742;49.306;8.636;2022-11-10T02:48:33;101069.58;;;10.53;100.00
25944;BME280;13742;49.306;8.636;2022-11-10T02:49:33;101074.63;;;10.51;100.00
25944;BME280;13742;49.306;8.636;2022-11-10T02:50:33;101070.66;;;10.49;100.00
25944;BME280;13742;49.306;8.636;2022-11-10T02:51:33;101070.07;;;10.48;100.00
25944;BME280;13742;49.306;8.636;2022-11-10T02:52:33;101072.17;;;10.47;100.00
25944;BME280;13742;49.306;8.636;2022-11-10T02:53:33;101073.22;;;10.47;100.00
25944;BME280;13742;49.306;8.636;2022-11-10T02:54:33;101075.25;;;10.45;100.00
25944;BME280;13742;49.306;8.636;2022-11-10T02:55:33;101072.68;;;10.44;100.00
25944;BME280;13742;49.306;8.636;2022-11-10T02:56:34;101072.55;;;10.45;100.00
25944;BME280;13742;49.306;8.636;2022-11-10T02:57:33;101076.42;;;10.44;100.00
25944;BME280;13742;49.306;8.636;2022-11-10T02:58:33;101074.86;;;10.42;100.00
25944;BME280;13742;49.306;8.636;2022-11-10T02:59:33;101079.95;;;10.41;100.00
25944;BME280;13742;49.306;8.636;2022-11-10T03:00:33;101078.06;;;10.39;100.00
25944;BME280;13742;49.306;8.636;2022-11-10T03:01:33;101074.99;;;10.37;100.00
25944;BME280;13742;49.306;8.636;2022-11-10T03:02:33;101082.05;;;10.35;100.00
25944;BME280;13742;49.306;8.636;2022-11-10T03:03:33;101082.15;;;10.34;100.00
25944;BME280;13742;49.306;8.636;2022-11-10T03:04:33;101083.81;;;10.32;100.00
25944;BME280;13742;49.306;8.636;2022-11-10T03:05:33;101087.60;;;10.31;100.00
25944;BME280;13742;49.306;8.636;2022-11-10T03:06:33;101086.15;;;10.29;100.00
25944;BME280;13742;49.306;8.636;2022-11-10T03:07:33;101084.85;;;10.28;100.00
25944;BME280;13742;49.306;8.636;2022-11-10T03:08:33;101090.54;;;10.27;100.00
25944;BME280;13742;49.306;8.636;2022-11-10T03:09:33;101088.42;;;10.25;100.00
25944;BME280;13742;49.306;8.636;2022-11-10T03:10:33;101095.59;;;10.24;100.00
25944;BME280;13742;49.306;8.636;2022-11-10T03:11:33;101093.74;;;10.22;100.00
25944;BME280;13742;49.306;8.636;2022-11-10T03:12:33;101097.53;;;10.21;100.00
25944;BME280;13742;49.306;8.636;2022-11-10T03:13:33;101098.98;;;10.20;100.00
25944;BME280;13742;49.306;8.636;2022-11-10T03:14:33;101099.83;;;10.19;100.00
25944;BME280;13742;49.306;8.636;2022-11-10T03:15:33;101100.58;;;10.17;100.00
25944;BME280;13742;49.306;8.636;2022-11-10T03:16:33;101102.31;;;10.18;100.00
25944;BME280;13742;49.306;8.636;2022-11-10T03:17:33;101100.15;;;10.16;100.00
25944;BME280;13742;49.306;8.636;2022-11-10T03:18:33;101101.98;;;10.15;100.00
25944;BME280;13742;49.306;8.636;2022-11-10T03:19:33;101102.94;;;10.14;100.00
25944;BME280;13742;49.306;8.636;2022-11-10T03:20:33;101106.19;;;10.14;100.00
25944;BME280;13742;49.306;8.636;2022-11-10T03:21:33;101103.47;;;10.12;100.00
25944;BME280;13742;49.306;8.636;2022-11-10T03:22:33;101102.83;;;10.11;100.00
25944;BME280;13742;49.306;8.636;2022-11-10T03:23:33;101098.41;;;10.11;100.00
25944;BME280;13742;49.306;8.636;2022-11-10T03:24:33;101099.39;;;10.11;100.00
25944;BME280;13742;49.306;8.636;2022-11-10T03:25:33;101096.33;;;10.11;100.00
25944;BME280;13742;49.306;8.636;2022-11-10T03:26:33;101097.47;;;10.12;100.00
25944;BME280;13742;49.306;8.636;2022-11-10T03:27:33;101094.42;;;10.10;100.00
25944;BME280;13742;49.306;8.636;2022-11-10T03:28:33;101097.72;;;10.11;100.00
25944;BME280;13742;49.306;8.636;2022-11-10T03:29:33;101100.85;;;10.11;100.00
25944;BME280;13742;49.306;8.636;2022-11-10T03:30:33;101099.20;;;10.11;100.00
25944;BME280;13742;49.306;8.636;2022-11-10T03:31:33;101100.61;;;10.12;100.00
25944;BME280;13742;49.306;8.636;2022-11-10T03:32:33;101098.61;;;10.13;100.00
25944;BME280;13742;49.306;8.636;2022-11-10T03:33:33;101097.27;;;10.14;100.00
25944;BME280;13742;49.306;8.636;2022-11-10T03:34:33;101102.84;;;10.16;100.00
25944;BME280;13742;49.306;8.636;2022-11-10T03:35:33;101103.45;;;10.16;100.00
25944;BME280;13742;49.306;8.636;2022-11-10T03:36:33;101102.89;;;10.17;100.00
25944;BME280;13742;49.306;8.636;2022-11-10T03:37:33;101101.01;;;10.17;100.00
25944;BME280;13742;49.306;8.636;2022-11-10T03:38:33;101100.47;;;10.17;100.00
25944;BME280;13742;49.306;8.636;2022-11-10T03:39:33;101097.97;;;10.18;100.00
25944;BME280;13742;49.306;8.636;2022-11-10T03:40:33;101103.72;;;10.19;100.00
25944;BME280;13742;49.306;8.636;2022-11-10T03:41:33;101103.48;;;10.20;100.00
25944;BME280;13742;49.306;8.636;2022-11-10T03:42:33;101107.34;;;10.20;100.00
25944;BME280;13742;49.306;8.636;2022-11-10T03:43:33;101113.96;;;10.22;100.00
25944;BME280;13742;49.306;8.636;2022-11-10T03:44:33;101113.80;;;10.22;100.00
25944;BME280;13742;49.306;8.636;2022-11-10T03:45:33;101116.61;;;10.23;100.00
25944;BME280;13742;49.306;8.636;2022-11-10T03:46:33;101121.13;;;10.24;100.00
25944;BME280;13742;49.306;8.636;2022-11-10T03:47:33;101121.95;;;10.24;100.00
25944;BME280;13742;49.306;8.636;2022-11-10T03:48:33;101125.66;;;10.23;100.00
25944;BME280;13742;49.306;8.636;2022-11-10T03:49:33;101127.92;;;10.22;100.00
25944;BME280;13742;49.306;8.636;2022-11-10T03:50:33;101133.52;;;10.21;100.00
25944;BME280;13742;49.306;8.636;2022-11-10T03:51:33;101135.97;;;10.20;100.00
25944;BME280;13742;49.306;8.636;2022-11-10T03:52:33;101137.22;;;10.19;100.00
25944;BME280;13742;49.306;8.636;2022-11-10T03:53:33;101136.94;;;10.17;100.00
25944;BME280;13742;49.306;8.636;2022-11-10T03:54:33;101136.45;;;10.14;100.00
25944;BME280;13742;49.306;8.636;2022-11-10T03:55:33;101142.11;;;10.14;100.00
25944;BME280;13742;49.306;8.636;2022-11-10T03:56:33;101141.14;;;10.12;100.00
25944;BME280;13742;49.306;8.636;2022-11-10T03:57:33;101147.22;;;10.11;100.00
25944;BME280;13742;49.306;8.636;2022-11-10T03:58:33;101151.69;;;10.10;100.00
25944;BME280;13742;49.306;8.636;2022-11-10T03:59:33;101156.80;;;10.09;100.00
25944;BME280;13742;49.306;8.636;2022-11-10T04:00:33;101157.56;;;10.04;100.00
25944;BME280;13742;49.306;8.636;2022-11-10T04:01:33;101165.47;;;9.95;100.00
25944;BME280;13742;49.306;8.636;2022-11-10T04:02:33;101163.94;;;9.94;100.00
25944;BME280;13742;49.306;8.636;2022-11-10T04:03:33;101163.80;;;9.93;100.00
25944;BME280;13742;49.306;8.636;2022-11-10T04:04:38;101160.17;;;9.92;100.00
25944;BME280;13742;49.306;8.636;2022-11-10T04:05:38;101160.55;;;9.90;100.00
25944;BME280;13742;49.306;8.636;2022-11-10T04:06:38;101159.50;;;9.83;100.00
25944;BME280;13742;49.306;8.636;2022-11-10T04:07:38;101167.25;;;9.78;100.00
25944;BME280;13742;49.306;8.636;2022-11-10T04:08:38;101167.67;;;9.75;100.00
25944;BME280;13742;49.306;8.636;2022-11-10T04:09:33;101171.87;;;9.71;100.00
25944;BME280;13742;49.306;8.636;2022-11-10T04:10:36;101176.17;;;9.66;100.00
25944;BME280;13742;49.306;8.636;2022-11-10T04:11:38;101181.23;;;9.66;100.00
25944;BME280;13742;49.306;8.636;2022-11-10T04:12:38;101182.30;;;9.65;100.00
25944;BME280;13742;49.306;8.636;2022-11-10T04:13:38;101181.27;;;9.64;100.00
25944;BME280;13742;49.306;8.636;2022-11-10T04:14:38;101184.06;;;9.64;100.00
25944;BME280;13742;49.306;8.636;2022-11-10T04:15:38;101185.60;;;9.64;100.00
25944;BME280;13742;49.306;8.636;2022-11-10T04:16:33;101189.55;;;9.65;100.00
25944;BME280;13742;49.306;8.636;2022-11-10T04:17:33;101188.73;;;9.64;100.00
25944;BME280;13742;49.306;8.636;2022-11-10T04:18:33;101190.35;;;9.63;100.00
25944;BME280;13742;49.306;8.636;2022-11-10T04:19:33;101193.98;;;9.63;100.00
25944;BME280;13742;49.306;8.636;2022-11-10T04:20:33;101193.68;;;9.64;100.00
25944;BME280;13742;49.306;8.636;2022-11-10T04:21:33;101196.90;;;9.63;100.00
25944;BME280;13742;49.306;8.636;2022-11-10T04:22:38;101202.17;;;9.63;100.00
25944;BME280;13742;49.306;8.636;2022-11-10T04:23:36;101202.48;;;9.61;100.00
25944;BME280;13742;49.306;8.636;2022-11-10T04:24:33;101206.01;;;9.60;100.00
25944;BME280;13742;49.306;8.636;2022-11-10T04:25:48;101204.02;;;9.60;100.00
25944;BME280;13742;49.306;8.636;2022-11-10T04:26:36;101205.94;;;9.60;100.00
25944;BME280;13742;49.306;8.636;2022-11-10T04:27:33;101206.78;;;9.59;100.00
25944;BME280;13742;49.306;8.636;2022-11-10T04:28:33;101207.36;;;9.57;100.00
25944;BME280;13742;49.306;8.636;2022-11-10T04:29:33;101209.14;;;9.56;100.00
25944;BME280;13742;49.306;8.636;2022-11-10T04:30:33;101208.83;;;9.54;100.00
25944;BME280;13742;49.306;8.636;2022-11-10T04:31:35;101207.58;;;9.53;100.00
25944;BME280;13742;49.306;8.636;2022-11-10T04:32:33;101204.55;;;9.50;100.00
25944;BME280;13742;49.306;8.636;2022-11-10T04:33:34;101204.84;;;9.51;100.00
25944;BME280;13742;49.306;8.636;2022-11-10T04:34:33;101209.24;;;9.49;100.00
25944;BME280;13742;49.306;8.636;2022-11-10T04:35:33;101210.44;;;9.49;100.00
25944;BME280;13742;49.306;8.636;2022-11-10T04:36:34;101214.78;;;9.49;100.00
25944;BME280;13742;49.306;8.636;2022-11-10T04:37:33;101216.94;;;9.48;100.00
25944;BME280;13742;49.306;8.636;2022-11-10T04:38:33;101220.73;;;9.48;100.00
25944;BME280;13742;49.306;8.636;2022-11-10T04:39:33;101225.47;;;9.48;100.00
25944;BME280;13742;49.306;8.636;2022-11-10T04:40:33;101224.20;;;9.48;100.00
25944;BME280;13742;49.306;8.636;2022-11-10T04:41:33;101223.51;;;9.46;100.00
25944;BME280;13742;49.306;8.636;2022-11-10T04:42:33;101223.27;;;9.46;100.00
25944;BME280;13742;49.306;8.636;2022-11-10T04:43:33;101220.95;;;9.44;100.00
25944;BME280;13742;49.306;8.636;2022-11-10T04:44:33;101221.75;;;9.44;100.00
25944;BME280;13742;49.306;8.636;2022-11-10T04:45:33;101222.72;;;9.43;100.00
25944;BME280;13742;49.306;8.636;2022-11-10T04:46:37;101229.73;;;9.43;100.00
25944;BME280;13742;49.306;8.636;2022-11-10T04:47:33;101229.13;;;9.43;100.00
25944;BME280;13742;49.306;8.636;2022-11-10T04:48:33;101233.73;;;9.43;100.00
25944;BME280;13742;49.306;8.636;2022-11-10T04:49:33;101235.00;;;9.43;100.00
25944;BME280;13742;49.306;8.636;2022-11-10T04:50:33;101235.00;;;9.43;100.00
25944;BME280;13742;49.306;8.636;2022-11-10T04:51:34;101240.55;;;9.43;100.00
25944;BME280;13742;49.306;8.636;2022-11-10T04:52:33;101242.08;;;9.42;100.00
25944;BME280;13742;49.306;8.636;2022-11-10T04:53:33;101246.31;;;9.43;100.00
25944;BME280;13742;49.306;8.636;2022-11-10T04:54:33;101243.86;;;9.42;100.00
25944;BME280;13742;49.306;8.636;2022-11-10T04:55:33;101244.38;;;9.41;100.00
25944;BME280;13742;49.306;8.636;2022-11-10T04:56:33;101241.72;;;9.40;100.00
25944;BME280;13742;49.306;8.636;2022-11-10T04:57:33;101242.23;;;9.40;100.00
25944;BME280;13742;49.306;8.636;2022-11-10T04:58:33;101244.66;;;9.40;100.00
25944;BME280;13742;49.306;8.636;2022-11-10T04:59:33;101242.09;;;9.39;100.00
25944;BME280;13742;49.306;8.636;2022-11-10T05:00:33;101238.84;;;9.39;100.00
25944;BME280;13742;49.306;8.636;2022-11-10T05:01:33;101243.90;;;9.39;100.00
25944;BME280;13742;49.306;8.636;2022-11-10T05:02:33;101240.84;;;9.38;100.00
25944;BME280;13742;49.306;8.636;2022-11-10T05:03:33;101244.99;;;9.36;100.00
25944;BME280;13742;49.306;8.636;2022-11-10T05:04:33;101246.41;;;9.36;100.00
25944;BME280;13742;49.306;8.636;2022-11-10T05:05:33;101247.30;;;9.35;100.00
25944;BME280;13742;49.306;8.636;2022-11-10T05:06:33;101248.00;;;9.33;100.00
25944;BME280;13742;49.306;8.636;2022-11-10T05:07:33;101247.50;;;9.33;100.00
25944;BME280;13742;49.306;8.636;2022-11-10T05:08:33;101250.07;;;9.33;100.00
25944;BME280;13742;49.306;8.636;2022-11-10T05:09:33;101249.55;;;9.32;100.00
25944;BME280;13742;49.306;8.636;2022-11-10T05:10:34;101250.91;;;9.32;100.00
25944;BME280;13742;49.306;8.636;2022-11-10T05:11:33;101251.21;;;9.32;100.00
25944;BME280;13742;49.306;8.636;2022-11-10T05:12:33;101254.05;;;9.32;100.00
25944;BME280;13742;49.306;8.636;2022-11-10T05:13:33;101250.93;;;9.31;100.00
25944;BME280;13742;49.306;8.636;2022-11-10T05:14:33;101248.95;;;9.31;100.00
25944;BME280;13742;49.306;8.636;2022-11-10T05:15:33;101245.92;;;9.31;100.00
25944;BME280;13742;49.306;8.636;2022-11-10T05:16:33;101242.09;;;9.30;100.00